Time;durP1;ratioP1;P1;durP2;ratioP2;P2;SDS_P1;SDS_P2;PMS_P1;PMS_P2;Temp;Humidity;BMP_temperature;BMP_pressure;BME280_temperature;BME280_humidity;BME280_pressure;Samples;Min_cycle;Max_cycle;Signal;HPM_P1;HPM_P2
2022/01/24 00:02:22;;;;;;;9.02;7.88;;;5.50;99.90;;;;;;5088104;28;20123;-78
2022/01/24 00:04:49;;;;;;;8.63;7.50;;;5.50;99.90;;;;;;5069660;28;20063;-79
2022/01/24 00:07:19;;;;;;;9.77;7.70;;;5.50;99.90;;;;;;5087785;28;20036;-78
2022/01/24 00:09:45;;;;;;;7.47;6.72;;;5.50;99.90;;;;;;5087680;28;20120;-78
2022/01/24 00:12:19;;;;;;;9.38;6.68;;;5.50;99.90;;;;;;5088283;28;20513;-78
2022/01/24 00:17:48;;;;;;;7.60;6.80;;;5.50;99.90;;;;;;5087673;28;20392;-79
2022/01/24 00:28:24;;;;;;;16.80;6.47;;;5.40;99.90;;;;;;5087073;28;20138;-78
2022/01/24 00:30:50;;;;;;;10.98;5.97;;;5.40;99.90;;;;;;5069236;28;20098;-77
2022/01/24 00:33:18;;;;;;;6.53;5.80;;;5.40;99.90;;;;;;5069602;28;20494;-79
2022/01/24 00:35:44;;;;;;;6.82;5.65;;;5.40;99.90;;;;;;5087283;28;20142;-79
2022/01/24 00:38:10;;;;;;;8.23;6.03;;;5.30;99.90;;;;;;5087795;28;20135;-78
2022/01/24 00:40:39;;;;;;;6.60;5.57;;;5.40;99.90;;;;;;5069388;28;20268;-78
2022/01/24 00:43:17;;;;;;;9.60;6.75;;;5.30;99.90;;;;;;5087188;28;20047;-79
2022/01/24 00:46:02;;;;;;;7.20;5.10;;;5.30;99.90;;;;;;5086052;28;20052;-72
2022/01/24 00:54:03;;;;;;;7.13;5.80;;;5.30;99.90;;;;;;5087263;28;20040;-78
2022/01/24 00:56:29;;;;;;;6.57;5.75;;;5.30;99.90;;;;;;5087436;28;20052;-79
2022/01/24 00:58:54;;;;;;;5.80;5.00;;;5.30;99.90;;;;;;5086461;28;20036;-79
2022/01/24 01:01:20;;;;;;;7.82;5.60;;;5.30;99.90;;;;;;5087008;28;20054;-78
2022/01/24 01:03:46;;;;;;;12.10;7.40;;;5.20;99.90;;;;;;5086660;28;20442;-79
2022/01/24 01:06:12;;;;;;;6.45;4.88;;;5.30;99.90;;;;;;5087339;28;20043;-78
2022/01/24 01:19:40;;;;;;;7.55;5.57;;;5.30;99.90;;;;;;5087175;28;20044;-79
2022/01/24 01:22:06;;;;;;;5.05;4.40;;;5.20;99.90;;;;;;5086629;28;20044;-77
2022/01/24 01:24:37;;;;;;;6.38;4.18;;;5.20;99.90;;;;;;5086837;28;20078;-78
2022/01/24 01:27:13;;;;;;;5.80;4.93;;;5.20;99.90;;;;;;5087040;28;20118;-79
2022/01/24 01:29:54;;;;;;;5.72;4.88;;;5.30;99.90;;;;;;5068492;28;20078;-80
2022/01/24 01:40:38;;;;;;;5.18;4.18;;;5.20;99.90;;;;;;5086502;28;20091;-79
2022/01/24 01:56:37;;;;;;;6.20;5.60;;;5.20;99.90;;;;;;5072403;28;20056;-79
2022/01/24 01:59:03;;;;;;;5.38;4.43;;;5.20;99.90;;;;;;5089430;28;20554;-78
2022/01/24 02:01:28;;;;;;;5.97;4.28;;;5.20;99.90;;;;;;5072122;28;20032;-78
2022/01/24 02:03:56;;;;;;;5.55;4.60;;;5.10;99.90;;;;;;5090233;28;20032;-77
2022/01/24 02:06:23;;;;;;;7.50;4.95;;;5.20;99.90;;;;;;5091696;28;20048;-80
2022/01/24 02:08:57;;;;;;;5.70;4.47;;;5.20;99.90;;;;;;5090677;28;20066;-78
2022/01/24 02:11:23;;;;;;;7.28;5.68;;;5.20;99.90;;;;;;5090491;28;20050;-77
2022/01/24 02:13:48;;;;;;;5.95;4.90;;;5.10;99.90;;;;;;5089318;28;20482;-78
2022/01/24 02:17:01;;;;;;;6.43;5.43;;;5.10;99.90;;;;;;5090650;28;20052;-78
2022/01/24 02:19:19;;;;;;;6.80;5.57;;;5.10;99.90;;;;;;5081521;28;20085;-78
2022/01/24 02:24:32;;;;;;;6.50;5.65;;;5.10;99.90;;;;;;5090193;28;20066;-80
2022/01/24 02:26:59;;;;;;;5.72;4.43;;;5.10;99.90;;;;;;5090209;28;20040;-78
2022/01/24 02:29:46;;;;;;;6.38;4.75;;;5.10;99.90;;;;;;5089326;28;20066;-78
2022/01/24 02:32:12;;;;;;;5.68;5.07;;;5.10;99.90;;;;;;5071768;28;20073;-78
2022/01/24 02:34:41;;;;;;;9.10;6.53;;;5.10;99.90;;;;;;5089880;28;20072;-79
2022/01/24 02:37:11;;;;;;;6.38;5.28;;;5.10;99.90;;;;;;5071150;28;20048;-80
2022/01/24 02:39:56;;;;;;;5.82;5.18;;;5.10;99.90;;;;;;5089353;28;20043;-79
2022/01/24 02:53:08;;;;;;;6.63;5.28;;;5.10;99.90;;;;;;5051170;28;20082;-80
2022/01/24 02:55:36;;;;;;;8.60;6.13;;;5.10;99.90;;;;;;5069102;28;20033;-79
2022/01/24 02:58:02;;;;;;;8.13;6.05;;;5.00;99.90;;;;;;5067937;28;20044;-79
2022/01/24 03:00:28;;;;;;;8.93;6.63;;;5.10;99.90;;;;;;5069099;28;20102;-79
2022/01/24 03:02:53;;;;;;;9.32;6.95;;;5.10;99.90;;;;;;5068486;28;20044;-79
2022/01/24 03:05:19;;;;;;;8.35;5.85;;;5.10;99.90;;;;;;5068645;28;20053;-77
2022/01/24 03:07:44;;;;;;;9.40;6.95;;;5.10;99.90;;;;;;5068581;28;20068;-78
2022/01/24 03:10:22;;;;;;;7.75;5.68;;;5.10;99.90;;;;;;5069028;28;20040;-78
2022/01/24 03:12:58;;;;;;;7.95;6.25;;;5.10;99.90;;;;;;5068489;28;20120;-80
2022/01/24 03:15:23;;;;;;;9.65;7.50;;;5.10;99.90;;;;;;5068900;28;20102;-78
2022/01/24 03:17:49;;;;;;;9.07;7.65;;;5.10;99.90;;;;;;5068699;28;20033;-79
2022/01/24 03:20:14;;;;;;;8.50;7.57;;;5.10;99.90;;;;;;5068563;28;20046;-79
2022/01/24 03:22:40;;;;;;;8.05;6.47;;;5.10;99.90;;;;;;5068997;28;20051;-77
2022/01/24 03:25:06;;;;;;;9.80;7.53;;;5.10;99.90;;;;;;5068178;28;20044;-79
2022/01/24 03:27:31;;;;;;;8.38;7.32;;;5.10;99.90;;;;;;5068726;28;20041;-78
2022/01/24 03:29:57;;;;;;;8.88;6.93;;;5.00;99.90;;;;;;5067418;28;20379;-79
2022/01/24 03:32:23;;;;;;;10.55;7.20;;;5.10;99.90;;;;;;5050353;28;20048;-79
2022/01/24 03:34:48;;;;;;;10.25;7.32;;;5.00;99.90;;;;;;5068195;28;20047;-78
2022/01/24 03:37:14;;;;;;;11.30;8.18;;;5.00;99.90;;;;;;5068335;28;20045;-78
2022/01/24 03:39:40;;;;;;;9.85;6.88;;;5.00;99.90;;;;;;5050450;28;20063;-79
2022/01/24 03:42:05;;;;;;;12.45;9.05;;;5.10;99.90;;;;;;5067982;28;20093;-79
2022/01/24 03:44:31;;;;;;;10.82;9.23;;;5.00;99.90;;;;;;5067293;28;20040;-78
2022/01/24 03:50:08;;;;;;;10.65;8.13;;;5.10;99.90;;;;;;5070304;28;20056;-78
2022/01/24 03:52:17;;;;;;;10.07;7.40;;;5.10;99.90;;;;;;5062214;28;20127;-77
2022/01/24 03:54:43;;;;;;;9.48;7.63;;;5.10;99.90;;;;;;5087970;28;20067;-76
2022/01/24 03:57:13;;;;;;;9.98;8.63;;;5.00;99.90;;;;;;5070334;28;20058;-79
2022/01/24 03:59:39;;;;;;;9.80;7.90;;;5.00;99.90;;;;;;5087712;28;20089;-78
2022/01/24 04:02:05;;;;;;;10.20;9.07;;;5.00;99.90;;;;;;5087896;28;20114;-79
2022/01/24 04:04:30;;;;;;;13.57;10.20;;;5.00;99.90;;;;;;5069197;28;20090;-78
2022/01/24 04:06:56;;;;;;;10.95;7.88;;;5.00;99.90;;;;;;5087829;28;20393;-79
2022/01/24 04:09:22;;;;;;;12.35;10.05;;;5.00;99.90;;;;;;5087882;28;20043;-79
2022/01/24 04:11:53;;;;;;;10.43;7.93;;;5.00;99.90;;;;;;5087923;28;20394;-81
2022/01/24 04:14:41;;;;;;;;;;;5.00;99.90;;;;;;5087432;28;20040;-79
2022/01/24 04:22:16;;;;;;;12.55;10.13;;;4.90;99.90;;;;;;5087988;28;20084;-79
2022/01/24 04:24:43;;;;;;;11.68;10.00;;;4.90;99.90;;;;;;5087867;28;20406;-80
2022/01/24 04:27:10;;;;;;;32.15;10.10;;;4.90;99.90;;;;;;5087704;28;20112;-77
2022/01/24 04:29:36;;;;;;;13.75;10.98;;;4.90;99.90;;;;;;5086909;28;20040;-78
2022/01/24 04:32:04;;;;;;;11.30;9.85;;;5.00;99.90;;;;;;5087435;28;21358;-78
2022/01/24 04:34:29;;;;;;;12.00;10.48;;;5.00;99.90;;;;;;5087230;28;20048;-79
2022/01/24 04:36:55;;;;;;;13.98;11.50;;;4.90;99.90;;;;;;5087400;28;20402;-78
2022/01/24 04:39:21;;;;;;;12.88;10.57;;;4.90;99.90;;;;;;5087329;28;20044;-79
2022/01/24 04:41:51;;;;;;;13.90;11.00;;;4.90;99.90;;;;;;5087328;28;20051;-78
2022/01/24 04:44:43;;;;;;;11.67;9.40;;;4.90;99.90;;;;;;5068254;28;20050;-78
2022/01/24 04:52:48;;;;;;;13.38;10.48;;;4.90;99.90;;;;;;5069175;28;20048;-78
2022/01/24 04:55:14;;;;;;;14.35;10.98;;;4.90;99.90;;;;;;5069449;28;20065;-78
2022/01/24 04:57:40;;;;;;;13.82;10.73;;;4.90;99.90;;;;;;5086870;28;20040;-73
2022/01/24 05:00:09;;;;;;;14.40;10.48;;;4.90;99.90;;;;;;5086804;28;20101;-77
2022/01/24 05:02:35;;;;;;;12.63;10.20;;;4.80;99.90;;;;;;5087267;28;20040;-79
2022/01/24 05:05:00;;;;;;;17.50;12.93;;;4.80;99.90;;;;;;5086774;28;20051;-78
2022/01/24 05:07:26;;;;;;;16.38;11.35;;;4.80;99.90;;;;;;5087510;28;20036;-78
2022/01/24 05:10:59;;;;;;;14.88;10.48;;;4.80;99.90;;;;;;5069110;28;20040;-78
2022/01/24 05:23:32;;;;;;;16.75;10.88;;;4.80;99.90;;;;;;5072819;28;20517;-79
2022/01/24 05:26:00;;;;;;;12.63;9.85;;;4.80;99.90;;;;;;5090938;28;20123;-78
2022/01/24 05:28:26;;;;;;;12.00;9.80;;;4.80;99.90;;;;;;5090318;28;20074;-79
2022/01/24 05:30:52;;;;;;;13.77;10.32;;;4.80;99.90;;;;;;5090884;28;20048;-78
2022/01/24 05:33:18;;;;;;;14.10;10.50;;;4.80;99.90;;;;;;5090822;28;20395;-79
2022/01/24 05:35:44;;;;;;;13.68;10.65;;;4.80;99.90;;;;;;5090717;28;20362;-78
2022/01/24 05:38:10;;;;;;;15.43;11.02;;;4.80;99.90;;;;;;5073211;28;20115;-78
2022/01/24 05:40:36;;;;;;;12.75;9.15;;;4.80;99.90;;;;;;5091075;28;20043;-78
2022/01/24 05:43:02;;;;;;;15.20;11.45;;;4.80;99.90;;;;;;5089627;28;20051;-78
2022/01/24 05:45:28;;;;;;;12.45;9.43;;;4.80;99.90;;;;;;5090967;28;20056;-79
2022/01/24 05:47:54;;;;;;;11.60;9.35;;;4.80;99.90;;;;;;5090553;28;20047;-78
2022/01/24 05:50:19;;;;;;;11.38;8.85;;;4.80;99.90;;;;;;5090524;28;20113;-79
2022/01/24 05:52:45;;;;;;;12.15;10.20;;;4.80;99.90;;;;;;5090177;28;20036;-77
2022/01/24 05:55:12;;;;;;;16.27;9.38;;;4.80;99.90;;;;;;5073029;28;20074;-78
2022/01/24 05:57:38;;;;;;;12.15;9.35;;;4.80;99.90;;;;;;5089884;28;20525;-79
2022/01/24 06:00:12;;;;;;;15.50;10.82;;;4.80;99.90;;;;;;5090542;28;20043;-78
2022/01/24 06:02:38;;;;;;;13.35;10.43;;;4.80;99.90;;;;;;5090472;28;20489;-77
2022/01/24 06:05:05;;;;;;;11.77;9.63;;;4.80;99.90;;;;;;5072213;28;20078;-78
2022/01/24 06:07:30;;;;;;;13.90;11.15;;;4.80;99.90;;;;;;5072018;28;20160;-79
2022/01/24 06:09:56;;;;;;;13.43;10.75;;;4.80;99.90;;;;;;5090190;28;20526;-77
2022/01/24 06:12:23;;;;;;;15.80;11.98;;;4.80;99.90;;;;;;5090231;28;20541;-77
2022/01/24 06:14:48;;;;;;;15.52;11.10;;;4.80;99.90;;;;;;5071091;28;20401;-77
2022/01/24 06:17:15;;;;;;;15.82;10.55;;;4.80;99.90;;;;;;5090029;28;20123;-77
2022/01/24 06:19:40;;;;;;;14.00;11.15;;;4.80;99.90;;;;;;5071834;28;20122;-78
2022/01/24 06:22:06;;;;;;;13.75;10.23;;;4.80;99.90;;;;;;5089652;28;20123;-77
2022/01/24 06:24:31;;;;;;;13.43;10.57;;;4.80;99.90;;;;;;5071788;28;20043;-78
2022/01/24 06:26:57;;;;;;;15.50;11.90;;;4.80;99.90;;;;;;5089001;28;20052;-78
2022/01/24 06:29:22;;;;;;;14.57;10.63;;;4.80;99.90;;;;;;5088831;28;20054;-78
2022/01/24 06:31:48;;;;;;;14.63;11.48;;;4.80;99.90;;;;;;5089508;28;20727;-78
2022/01/24 06:34:14;;;;;;;11.88;10.10;;;4.80;99.90;;;;;;5071632;28;20059;-78
2022/01/24 06:36:39;;;;;;;17.38;12.85;;;4.70;99.90;;;;;;5071680;28;20076;-78
2022/01/24 06:39:06;;;;;;;14.70;11.38;;;4.70;99.90;;;;;;5089489;28;20044;-78
2022/01/24 06:41:34;;;;;;;12.18;10.35;;;4.70;99.90;;;;;;5089737;28;20044;-78
2022/01/24 06:44:02;;;;;;;13.98;9.90;;;4.70;99.90;;;;;;5088146;28;20265;-78
2022/01/24 06:46:28;;;;;;;15.23;11.10;;;4.70;99.90;;;;;;5089334;28;20121;-77
2022/01/24 06:48:54;;;;;;;12.07;9.32;;;4.70;99.90;;;;;;5054817;28;20423;-77
2022/01/24 06:51:20;;;;;;;24.48;11.23;;;4.70;99.90;;;;;;5054373;28;20131;-78
2022/01/24 06:53:47;;;;;;;14.02;10.30;;;4.70;99.90;;;;;;5089189;28;20086;-78
2022/01/24 06:56:14;;;;;;;13.43;10.60;;;4.70;99.90;;;;;;5071489;28;20470;-77
2022/01/24 06:58:40;;;;;;;11.48;8.90;;;4.70;99.90;;;;;;5070665;28;20040;-77
2022/01/24 07:01:05;;;;;;;13.63;10.73;;;4.70;99.90;;;;;;5089002;28;20039;-77
2022/01/24 07:03:31;;;;;;;15.10;10.25;;;4.80;99.90;;;;;;5071262;28;20484;-76
2022/01/24 07:05:57;;;;;;;13.77;11.35;;;4.80;99.90;;;;;;5088931;28;20048;-77
2022/01/24 07:08:22;;;;;;;13.38;10.88;;;4.80;99.90;;;;;;5054813;28;20043;-77
2022/01/24 07:10:48;;;;;;;13.45;9.88;;;4.80;99.90;;;;;;5071324;28;20409;-77
2022/01/24 07:13:13;;;;;;;19.13;13.05;;;4.80;99.90;;;;;;5087982;28;20047;-77
2022/01/24 07:15:47;;;;;;;19.92;14.25;;;4.80;99.90;;;;;;5089285;28;20044;-77
2022/01/24 07:20:55;;;;;;;14.98;11.88;;;4.80;99.90;;;;;;5070313;28;20075;-77
2022/01/24 07:23:21;;;;;;;16.33;12.40;;;4.80;99.90;;;;;;5088586;28;20036;-77
2022/01/24 07:25:46;;;;;;;14.68;11.77;;;4.80;99.90;;;;;;5070263;28;20058;-77
2022/01/24 07:28:13;;;;;;;16.65;11.80;;;4.80;99.90;;;;;;5087833;28;20032;-77
2022/01/24 07:30:39;;;;;;;17.38;14.18;;;4.80;99.90;;;;;;5088785;28;20048;-77
2022/01/24 07:33:04;;;;;;;18.92;12.98;;;4.80;99.90;;;;;;5070183;28;20051;-75
2022/01/24 07:35:30;;;;;;;16.35;11.70;;;4.80;99.90;;;;;;5088596;28;20058;-78
2022/01/24 07:37:56;;;;;;;18.05;13.90;;;4.90;99.90;;;;;;5087860;28;20047;-77
2022/01/24 07:40:22;;;;;;;16.65;12.98;;;4.80;99.90;;;;;;5087648;28;20545;-78
2022/01/24 07:42:55;;;;;;;17.30;13.75;;;4.80;99.90;;;;;;5087074;28;20082;-77
2022/01/24 07:45:23;;;;;;;16.90;13.68;;;4.80;99.90;;;;;;5088338;28;20036;-77
2022/01/24 07:47:50;;;;;;;19.15;13.93;;;4.90;99.90;;;;;;5069563;28;20574;-77
2022/01/24 07:50:18;;;;;;;17.55;13.32;;;4.90;99.90;;;;;;5053331;28;20177;-78
2022/01/24 07:52:44;;;;;;;18.05;13.55;;;4.90;99.90;;;;;;5088089;28;20074;-77
2022/01/24 07:55:09;;;;;;;18.23;13.80;;;4.90;99.90;;;;;;5088444;28;20474;-78
2022/01/24 07:57:35;;;;;;;20.02;15.05;;;4.90;99.90;;;;;;5086974;28;20531;-77
2022/01/24 08:00:01;;;;;;;22.17;16.13;;;5.00;99.90;;;;;;5087361;28;20074;-77
2022/01/24 08:02:26;;;;;;;24.38;17.70;;;4.90;99.90;;;;;;5087719;28;20040;-78
2022/01/24 08:04:52;;;;;;;25.02;18.85;;;5.00;99.90;;;;;;5087749;28;20265;-78
2022/01/24 08:07:17;;;;;;;23.85;18.95;;;5.00;99.90;;;;;;5087945;28;20166;-78
2022/01/24 08:09:43;;;;;;;21.20;14.85;;;4.90;99.90;;;;;;5087514;28;20055;-77
2022/01/24 08:12:09;;;;;;;26.17;17.20;;;5.00;99.90;;;;;;5052955;28;20332;-72
2022/01/24 08:14:34;;;;;;;19.65;14.27;;;5.00;99.90;;;;;;5070080;28;20058;-77
2022/01/24 08:17:02;;;;;;;18.38;15.73;;;5.10;99.90;;;;;;5090622;28;20035;-77
2022/01/24 08:19:28;;;;;;;21.35;17.27;;;5.10;99.90;;;;;;5072304;28;20132;-78
2022/01/24 08:21:56;;;;;;;25.00;19.88;;;5.10;99.90;;;;;;5069495;28;20451;-78
2022/01/24 08:24:22;;;;;;;22.45;17.65;;;5.10;99.90;;;;;;5069597;28;20048;-78
2022/01/24 08:26:48;;;;;;;23.05;16.30;;;5.10;99.90;;;;;;5087410;28;20082;-77
2022/01/24 08:29:14;;;;;;;24.30;17.08;;;5.10;99.90;;;;;;5086477;28;20039;-78
2022/01/24 08:31:39;;;;;;;22.23;17.02;;;5.10;99.90;;;;;;5069644;28;20097;-78
2022/01/24 08:34:05;;;;;;;20.85;16.92;;;5.10;99.90;;;;;;5087273;28;20048;-77
2022/01/24 08:36:30;;;;;;;23.75;17.00;;;5.00;99.90;;;;;;5069497;28;20093;-77
2022/01/24 08:39:02;;;;;;;23.70;16.90;;;5.10;99.90;;;;;;5087102;28;20044;-77
2022/01/24 08:41:40;;;;;;;19.33;15.48;;;5.00;99.90;;;;;;5069111;28;20443;-77
2022/01/24 08:44:19;;;;;;;22.55;16.30;;;5.10;99.90;;;;;;5086168;28;20059;-78
2022/01/24 08:46:49;;;;;;;21.55;17.05;;;5.10;99.90;;;;;;5068960;28;20055;-78
2022/01/24 08:49:15;;;;;;;20.88;15.95;;;5.10;99.90;;;;;;5087128;28;20486;-79
2022/01/24 08:51:41;;;;;;;22.63;16.83;;;5.10;99.90;;;;;;5087075;28;20040;-77
2022/01/24 08:54:07;;;;;;;20.73;16.77;;;5.10;99.90;;;;;;5086709;28;20082;-77
2022/01/24 08:56:34;;;;;;;22.88;17.48;;;5.10;99.90;;;;;;5087630;28;20501;-77
2022/01/24 08:59:00;;;;;;;23.27;16.77;;;5.10;99.90;;;;;;5085980;28;20489;-78
2022/01/24 09:01:26;;;;;;;25.77;18.73;;;5.10;99.90;;;;;;5068682;28;20059;-78
2022/01/24 09:03:51;;;;;;;26.63;18.50;;;5.20;99.90;;;;;;5086563;28;20490;-78
2022/01/24 09:06:18;;;;;;;24.00;18.02;;;5.20;99.90;;;;;;5069133;28;20059;-77
2022/01/24 09:08:45;;;;;;;27.20;19.23;;;5.20;99.90;;;;;;5068758;28;20056;-77
2022/01/24 09:11:11;;;;;;;25.40;17.70;;;5.20;99.90;;;;;;5087697;28;20048;-79
2022/01/24 09:13:37;;;;;;;23.48;19.25;;;5.20;99.90;;;;;;5086110;28;20402;-78
2022/01/24 09:16:03;;;;;;;22.60;17.17;;;5.20;99.90;;;;;;5086847;28;20109;-77
2022/01/24 09:18:29;;;;;;;23.33;17.15;;;5.20;99.90;;;;;;5069118;28;20174;-79
2022/01/24 09:20:55;;;;;;;22.48;15.63;;;5.20;99.90;;;;;;5086857;28;20040;-79
2022/01/24 09:23:22;;;;;;;21.58;16.55;;;5.20;99.90;;;;;;5068648;28;20044;-77
2022/01/24 09:25:49;;;;;;;21.35;17.90;;;5.30;99.90;;;;;;5086861;28;20387;-77
2022/01/24 09:28:15;;;;;;;21.23;17.60;;;5.20;99.90;;;;;;5067825;28;20069;-77
2022/01/24 09:30:41;;;;;;;24.10;18.88;;;5.20;99.90;;;;;;5087584;28;20046;-78
2022/01/24 09:33:06;;;;;;;27.33;19.77;;;5.20;99.90;;;;;;5086646;28;20044;-77
2022/01/24 09:35:32;;;;;;;24.92;18.17;;;5.30;99.90;;;;;;5086858;28;20054;-76
2022/01/24 09:37:58;;;;;;;29.48;21.45;;;5.20;99.90;;;;;;5068127;28;20040;-76
2022/01/24 09:40:24;;;;;;;26.98;19.38;;;5.30;99.90;;;;;;5068821;28;20046;-77
2022/01/24 09:42:50;;;;;;;26.92;21.33;;;5.40;99.90;;;;;;5085749;28;20032;-77
2022/01/24 09:45:17;;;;;;;27.65;19.60;;;5.40;99.90;;;;;;5086742;28;20494;-77
2022/01/24 09:47:43;;;;;;;34.00;21.65;;;5.40;99.90;;;;;;5086333;28;20040;-74
2022/01/24 09:50:12;;;;;;;29.60;19.88;;;5.40;99.90;;;;;;5068874;28;20123;-76
2022/01/24 09:52:44;;;;;;;26.27;20.45;;;5.40;99.90;;;;;;5068714;28;20071;-78
2022/01/24 09:55:10;;;;;;;27.80;20.95;;;5.40;99.90;;;;;;5068929;28;20460;-77
2022/01/24 09:57:37;;;;;;;27.88;19.55;;;5.40;99.90;;;;;;5085838;28;20032;-77
2022/01/24 10:00:05;;;;;;;31.25;20.27;;;5.50;99.90;;;;;;5051603;28;20548;-77
2022/01/24 10:02:30;;;;;;;29.70;21.55;;;5.40;99.90;;;;;;5088318;28;20448;-77
2022/01/24 10:05:16;;;;;;;33.40;23.95;;;5.50;99.90;;;;;;5089932;28;20052;-78
2022/01/24 10:07:56;;;;;;;28.27;20.88;;;5.50;99.90;;;;;;5072125;28;20079;-78
2022/01/24 10:10:51;;;;;;;28.55;20.15;;;5.40;99.90;;;;;;5072095;28;20071;-78
2022/01/24 10:19:14;;;;;;;33.47;22.48;;;5.50;99.90;;;;;;5071320;28;20629;-79
2022/01/24 10:21:41;;;;;;;33.55;23.02;;;5.50;99.90;;;;;;5089994;28;20036;-78
2022/01/24 10:24:09;;;;;;;34.40;22.58;;;5.50;99.90;;;;;;5089834;28;20632;-78
2022/01/24 10:26:35;;;;;;;34.30;22.63;;;5.50;99.90;;;;;;5089865;28;20101;-79
2022/01/24 10:29:00;;;;;;;35.03;23.10;;;5.50;99.90;;;;;;5088536;28;20068;-78
2022/01/24 10:31:29;;;;;;;31.55;23.58;;;5.60;99.90;;;;;;5089709;28;20040;-78
2022/01/24 10:36:36;;;;;;;32.53;22.67;;;5.60;99.90;;;;;;5071438;28;20040;-78
2022/01/24 10:39:20;;;;;;;30.13;22.55;;;5.60;99.90;;;;;;5071136;28;20047;-77
2022/01/24 10:41:55;;;;;;;30.20;20.80;;;5.60;99.90;;;;;;5088240;28;20051;-77
2022/01/24 10:44:29;;;;;;;37.38;24.27;;;5.70;99.90;;;;;;5089383;28;20066;-78
2022/01/24 10:47:11;;;;;;;36.17;26.13;;;5.70;99.90;;;;;;5089380;28;20044;-78
2022/01/24 10:49:37;;;;;;;37.67;25.70;;;5.70;99.90;;;;;;5071566;28;20112;-78
2022/01/24 10:52:15;;;;;;;32.25;23.65;;;5.70;99.90;;;;;;5089674;28;20186;-78
2022/01/24 10:54:41;;;;;;;33.83;24.65;;;5.70;99.90;;;;;;5071680;28;20040;-76
2022/01/24 10:57:06;;;;;;;31.33;22.15;;;5.70;99.90;;;;;;5088668;28;20055;-78
2022/01/24 10:59:34;;;;;;;32.03;22.23;;;5.70;99.90;;;;;;5089583;28;20575;-78
2022/01/24 11:02:04;;;;;;;34.13;23.88;;;5.60;99.90;;;;;;5089406;28;20090;-79
2022/01/24 11:04:30;;;;;;;34.87;25.23;;;5.70;99.90;;;;;;5089267;28;20071;-79
2022/01/24 11:06:58;;;;;;;42.30;27.13;;;5.70;99.90;;;;;;5088786;28;20461;-78
2022/01/24 11:09:26;;;;;;;36.42;24.67;;;5.60;99.90;;;;;;5088886;28;20111;-78
2022/01/24 11:12:01;;;;;;;37.67;26.80;;;5.60;99.90;;;;;;5089864;28;20040;-77
2022/01/24 11:14:29;;;;;;;41.83;27.90;;;5.70;99.90;;;;;;5075282;28;20259;-78
2022/01/24 11:16:58;;;;;;;38.47;28.73;;;5.70;99.90;;;;;;5071786;28;20040;-78
2022/01/24 11:22:04;;;;;;;38.40;28.67;;;5.60;99.90;;;;;;5088461;28;20060;-78
2022/01/24 11:24:43;;;;;;;;;;;5.60;99.90;;;;;;5089360;28;20043;-79
2022/01/24 11:27:10;;;;;;;48.15;28.27;;;5.70;99.90;;;;;;5069810;28;20440;-78
2022/01/24 11:29:37;;;;;;;41.22;30.08;;;5.70;99.90;;;;;;5088683;28;20036;-77
2022/01/24 11:32:03;;;;;;;40.08;29.80;;;5.80;99.90;;;;;;5070088;28;20062;-78
2022/01/24 11:34:39;;;;;;;35.20;26.05;;;5.70;99.90;;;;;;5070749;28;20060;-78
2022/01/24 11:37:07;;;;;;;40.85;27.27;;;5.70;99.90;;;;;;5088554;28;20040;-77
2022/01/24 11:39:37;;;;;;;48.25;31.10;;;5.70;99.90;;;;;;5088547;28;20051;-78
2022/01/24 11:42:04;;;;;;;41.10;28.33;;;5.70;99.90;;;;;;5087224;28;20044;-77
2022/01/24 11:44:47;;;;;;;42.30;29.02;;;5.70;99.90;;;;;;5070558;28;20478;-80
2022/01/24 11:47:24;;;;;;;43.75;30.67;;;5.70;99.90;;;;;;5088991;28;20105;-77
2022/01/24 11:49:53;;;;;;;36.70;24.35;;;5.80;99.90;;;;;;5088452;28;20043;-79
2022/01/24 11:52:27;;;;;;;45.08;28.98;;;5.70;99.90;;;;;;5088796;28;20043;-80
2022/01/24 11:55:06;;;;;;;44.40;29.27;;;5.70;99.90;;;;;;5088188;28;20040;-78
2022/01/24 11:57:47;;;;;;;43.55;28.70;;;5.80;99.90;;;;;;5087949;28;20070;-78
2022/01/24 12:00:16;;;;;;;37.30;27.05;;;5.80;99.90;;;;;;5088704;28;20036;-78
2022/01/24 12:02:52;;;;;;;30.33;20.65;;;5.70;99.90;;;;;;5088612;28;20402;-72
2022/01/24 12:05:26;;;;;;;32.20;22.92;;;5.70;99.90;;;;;;5088478;28;20048;-79
2022/01/24 12:08:06;;;;;;;33.28;23.67;;;5.80;99.90;;;;;;5088164;28;20044;-79
2022/01/24 12:10:35;;;;;;;;;;;5.80;99.90;;;;;;5088781;28;20221;-79
2022/01/24 12:13:04;;;;;;;35.35;25.50;;;5.70;99.90;;;;;;5086847;28;19999;-79
2022/01/24 12:15:36;;;;;;;30.85;21.38;;;5.80;99.90;;;;;;5070380;28;20130;-79
2022/01/24 12:18:06;;;;;;;32.53;21.80;;;5.80;99.90;;;;;;5087703;28;20052;-80
2022/01/24 12:20:32;;;;;;;31.45;22.90;;;5.80;99.90;;;;;;5088205;28;20044;-78
2022/01/24 12:22:58;;;;;;;30.58;21.85;;;5.80;99.90;;;;;;5087927;28;20047;-79
2022/01/24 12:25:49;;;;;;;30.35;22.27;;;5.90;99.90;;;;;;5087449;28;20044;-79
2022/01/24 12:28:17;;;;;;;33.35;22.83;;;5.80;99.90;;;;;;5087574;28;20094;-78
2022/01/24 12:31:07;;;;;;;31.63;22.80;;;5.80;99.90;;;;;;5088880;28;20052;-73
2022/01/24 12:33:41;;;;;;;33.28;23.60;;;5.90;99.90;;;;;;5088596;28;20043;-79
2022/01/24 12:36:11;;;;;;;35.25;24.15;;;5.80;99.90;;;;;;5087858;28;20036;-79
2022/01/24 12:38:46;;;;;;;31.65;21.42;;;5.80;99.90;;;;;;5070312;28;20040;-78
2022/01/24 12:41:37;;;;;;;32.53;22.42;;;5.80;99.90;;;;;;5088135;28;20098;-79
2022/01/24 12:46:31;;;;;;;26.70;19.33;;;5.80;99.90;;;;;;5087777;28;20106;-79
2022/01/24 12:48:59;;;;;;;29.98;21.90;;;5.80;99.90;;;;;;5087459;28;20291;-78
2022/01/24 12:51:27;;;;;;;30.00;20.02;;;5.80;99.90;;;;;;5087579;28;20043;-79
2022/01/24 12:53:54;;;;;;;29.15;19.73;;;5.80;99.90;;;;;;5087337;28;20048;-78
2022/01/24 12:56:25;;;;;;;32.85;22.17;;;5.80;99.90;;;;;;5087414;28;20411;-78
2022/01/24 12:58:51;;;;;;;34.35;23.27;;;5.80;99.90;;;;;;5087243;28;20048;-78
2022/01/24 13:01:25;;;;;;;38.78;24.90;;;5.90;99.90;;;;;;5069410;28;20486;-80
2022/01/24 13:03:55;;;;;;;30.05;21.38;;;5.80;99.90;;;;;;5087222;28;20047;-80
2022/01/24 13:06:22;;;;;;;34.47;24.45;;;5.80;99.90;;;;;;5069448;28;20110;-78
2022/01/24 13:08:58;;;;;;;35.60;24.88;;;5.90;99.90;;;;;;5087472;28;20044;-80
2022/01/24 13:11:27;;;;;;;36.28;24.67;;;5.80;99.90;;;;;;5086655;28;20036;-78
2022/01/24 13:14:03;;;;;;;39.47;27.20;;;5.80;99.90;;;;;;5087431;28;20436;-78
2022/01/24 13:22:26;;;;;;;248.27;87.20;;;5.80;99.90;;;;;;5087801;28;20127;-79
2022/01/24 13:25:09;;;;;;;54.15;30.90;;;5.80;99.90;;;;;;5087283;28;20043;-79
2022/01/24 13:27:47;;;;;;;35.53;23.90;;;5.80;99.90;;;;;;5086182;28;20512;-79
2022/01/24 13:30:37;;;;;;;30.70;22.65;;;5.80;99.90;;;;;;5087974;28;20309;-75
2022/01/24 13:33:05;;;;;;;33.53;23.00;;;5.70;99.90;;;;;;5087079;28;20056;-79
2022/01/24 13:35:33;;;;;;;39.63;27.85;;;5.70;99.90;;;;;;5087368;28;20409;-80
2022/01/24 13:38:02;;;;;;;37.65;26.40;;;5.70;99.90;;;;;;5091310;28;20055;-80
2022/01/24 13:40:52;;;;;;;28.27;21.40;;;5.70;99.90;;;;;;5092732;28;20525;-79
2022/01/24 13:43:43;;;;;;;33.00;23.60;;;5.70;99.90;;;;;;5075210;28;20485;-79
2022/01/24 13:46:11;;;;;;;28.73;20.50;;;5.70;99.90;;;;;;5094003;28;20090;-79
2022/01/24 13:48:52;;;;;;;35.33;25.42;;;5.70;99.90;;;;;;5074002;28;20123;-79
2022/01/24 13:51:23;;;;;;;36.60;25.38;;;5.70;99.90;;;;;;5091914;28;20486;-79
2022/01/24 13:53:52;;;;;;;34.65;27.13;;;5.70;99.90;;;;;;5094002;28;20436;-79
2022/01/24 13:56:43;;;;;;;36.63;26.85;;;5.70;99.90;;;;;;5092785;28;20490;-78
2022/01/24 13:59:20;;;;;;;38.38;25.20;;;5.70;99.90;;;;;;5089802;28;20060;-79
2022/01/24 14:01:55;;;;;;;34.65;23.27;;;5.60;99.90;;;;;;5091341;28;20055;-78
2022/01/24 14:04:34;;;;;;;37.33;24.27;;;5.50;99.90;;;;;;5093069;28;20055;-78
2022/01/24 14:07:10;;;;;;;33.80;26.33;;;5.60;99.90;;;;;;5095844;28;20099;-78
2022/01/24 14:09:45;;;;;;;33.10;23.58;;;5.60;99.90;;;;;;5092739;28;20120;-78
2022/01/24 14:12:16;;;;;;;37.33;24.30;;;5.50;99.90;;;;;;5090041;28;20094;-78
2022/01/24 14:19:42;;;;;;;30.13;21.50;;;5.60;99.90;;;;;;5090192;28;20357;-77
2022/01/24 14:22:11;;;;;;;35.38;22.73;;;5.60;99.90;;;;;;5071927;28;20418;-78
2022/01/24 14:24:50;;;;;;;36.60;25.73;;;5.50;99.90;;;;;;5089895;28;20090;-78
2022/01/24 14:27:38;;;;;;;35.08;23.98;;;5.60;99.90;;;;;;5071075;28;20040;-77
2022/01/24 14:30:26;;;;;;;35.58;24.63;;;5.50;99.90;;;;;;5089321;28;20048;-77
2022/01/24 14:33:27;;;;;;;35.80;24.52;;;5.50;99.90;;;;;;5089380;28;20098;-78
2022/01/24 14:35:58;;;;;;;40.55;27.88;;;5.40;99.90;;;;;;5071399;28;20441;-77
2022/01/24 14:38:34;;;;;;;37.22;25.55;;;5.40;99.90;;;;;;5089815;28;20414;-77
2022/01/24 14:41:05;;;;;;;35.95;25.15;;;5.30;99.90;;;;;;5054619;28;20052;-78
2022/01/24 14:46:19;;;;;;;30.95;21.42;;;5.40;99.90;;;;;;5071266;28;20048;-78
2022/01/24 14:48:49;;;;;;;32.10;23.77;;;5.40;99.90;;;;;;5070172;28;20063;-77
2022/01/24 14:51:24;;;;;;;36.40;22.67;;;5.40;99.90;;;;;;5089506;28;20473;-78
2022/01/24 14:53:55;;;;;;;34.53;22.30;;;5.30;99.90;;;;;;5089097;28;20123;-78